Middleton Island, Alaska
Current Conditions -  °F | °C
As of 9:36 PM on Friday 28 Nov 2014 (Local Time) from PAMD Reporting Station
Overcast Overcast  
Wind Chill: 32°   Ceiling: 4700
Heat Index: 37°   Visibility: 10mi
Dew Point: 30°   Wind: 7mph
Humidity: 75%   Direction: 60°ENE
Pressure: 30.13"   Gusts: NA
Location:  59.43°N, 146.33°W
Report Text: PAMD 290636Z 06006KT 10SM OVC047 03/M01 A3013 RMK AO1
Loading
Personal Weather Stations






























Interactive Weather Map New forecast layout! Learn more

10-Day Weather Forecast

Advertisements
Track Severe Weather on mobile